createdAt,value
2022-07-27T00:00:29.267Z,15.74
2022-07-27T00:10:31.285Z,15.66
2022-07-27T00:20:33.364Z,15.64
2022-07-27T00:30:35.403Z,15.54
2022-07-27T00:40:37.347Z,15.53
2022-07-27T00:50:42.610Z,15.55
2022-07-27T01:00:45.639Z,15.32
2022-07-27T01:10:48.607Z,15.11
2022-07-27T01:20:52.571Z,15.11
2022-07-27T01:30:55.780Z,15.06
2022-07-27T01:40:57.862Z,14.90
2022-07-27T01:50:59.843Z,14.91
2022-07-27T02:01:01.803Z,15.13
2022-07-27T02:11:22.446Z,15.42
2022-07-27T02:21:24.800Z,15.74
2022-07-27T02:31:26.851Z,15.96
2022-07-27T02:41:34.778Z,16.01
2022-07-27T02:51:36.974Z,16.05
2022-07-27T03:01:41.837Z,16.02
2022-07-27T03:11:43.852Z,15.83
2022-07-27T03:21:46.126Z,15.84
2022-07-27T03:31:48.134Z,16.19
2022-07-27T03:41:49.990Z,16.70
2022-07-27T03:51:51.918Z,17.18
2022-07-27T04:01:53.975Z,17.33
2022-07-27T04:11:55.863Z,17.39
2022-07-27T04:21:57.901Z,17.62
2022-07-27T04:32:00.031Z,17.89
2022-07-27T04:42:02.068Z,18.08
2022-07-27T04:52:04.308Z,18.35
2022-07-27T05:02:06.346Z,19.10
2022-07-27T05:12:08.189Z,20.31
2022-07-27T05:22:10.750Z,22.14
2022-07-27T05:32:12.841Z,27.12
2022-07-27T05:42:14.915Z,31.62
2022-07-27T05:52:17.234Z,34.85
2022-07-27T06:02:19.217Z,36.89
2022-07-27T06:12:21.179Z,39.09
2022-07-27T06:22:51.488Z,40.94
2022-07-27T06:32:54.029Z,42.48
2022-07-27T06:42:59.279Z,44.10
2022-07-27T06:53:01.260Z,45.83
2022-07-27T07:03:04.816Z,47.23
2022-07-27T07:13:08.353Z,48.56
2022-07-27T07:23:11.015Z,50.03
2022-07-27T07:33:13.683Z,50.85
2022-07-27T07:43:16.439Z,52.35
2022-07-27T07:53:18.380Z,53.71
2022-07-27T08:03:20.821Z,54.94
2022-07-27T08:13:22.983Z,56.37
2022-07-27T08:23:27.004Z,57.42
2022-07-27T08:33:28.990Z,59.34
2022-07-27T08:43:32.268Z,60.62
2022-07-27T08:53:52.249Z,61.43
2022-07-27T09:03:55.732Z,62.01
2022-07-27T09:14:03.817Z,63.04
2022-07-27T09:24:23.081Z,63.58
2022-07-27T09:34:31.972Z,63.97
2022-07-27T09:44:43.839Z,63.01
2022-07-27T09:54:47.973Z,61.59
2022-07-27T10:04:50.182Z,60.27
2022-07-27T10:14:53.042Z,54.61
2022-07-27T10:25:01.591Z,51.99
2022-07-27T10:35:04.133Z,47.72
2022-07-27T10:45:11.038Z,49.56
2022-07-27T10:55:35.596Z,43.24
2022-07-27T11:16:23.489Z,33.68
2022-07-27T11:26:29.333Z,32.62
2022-07-27T11:36:42.365Z,31.93
2022-07-27T11:46:45.725Z,31.28
2022-07-27T11:56:53.562Z,31.06
2022-07-27T12:07:04.955Z,30.52
2022-07-27T12:17:25.842Z,30.50
2022-07-27T12:27:29.123Z,29.26
2022-07-27T12:37:34.000Z,28.52
2022-07-27T12:47:41.861Z,28.87
2022-07-27T12:57:55.850Z,29.33
2022-07-27T13:08:00.042Z,28.62
2022-07-27T13:18:02.359Z,27.47
2022-07-27T13:28:04.495Z,27.43
2022-07-27T13:38:07.355Z,27.80
2022-07-27T13:48:09.263Z,27.84
2022-07-27T13:58:14.493Z,28.24
2022-07-27T14:08:18.854Z,28.30
2022-07-27T14:18:21.158Z,27.51
2022-07-27T14:28:25.133Z,26.90
2022-07-27T14:38:30.879Z,26.44
2022-07-27T14:49:04.119Z,25.48
2022-07-27T14:58:55.191Z,24.98
2022-07-27T15:08:57.312Z,25.24
2022-07-27T15:19:00.578Z,25.45
2022-07-27T15:29:02.593Z,24.99
2022-07-27T15:39:05.450Z,24.73
2022-07-27T15:49:07.946Z,24.78
2022-07-27T15:59:10.327Z,24.87
2022-07-27T16:09:14.122Z,24.61
2022-07-27T16:19:17.309Z,24.13
2022-07-27T16:29:19.780Z,23.79
2022-07-27T16:39:22.498Z,23.42
2022-07-27T16:49:36.238Z,23.46
2022-07-27T16:59:40.352Z,23.62
2022-07-27T17:09:42.567Z,23.19
2022-07-27T17:19:44.686Z,22.72
2022-07-27T17:29:46.841Z,22.18
2022-07-27T17:39:49.384Z,21.60
2022-07-27T17:49:51.601Z,21.05
2022-07-27T17:59:57.374Z,20.43
2022-07-27T18:10:00.074Z,19.84
2022-07-27T18:20:02.454Z,19.49
2022-07-27T18:30:06.059Z,19.70
2022-07-27T18:40:12.191Z,19.83
2022-07-27T18:50:20.462Z,19.67
2022-07-27T19:00:24.812Z,19.42
2022-07-27T19:10:27.496Z,19.39
2022-07-27T19:20:29.773Z,19.05
2022-07-27T19:30:32.179Z,18.59
2022-07-27T19:40:44.962Z,18.27
2022-07-27T19:50:47.849Z,17.86
2022-07-27T20:00:53.413Z,17.48
2022-07-27T20:10:56.384Z,17.43
2022-07-27T20:20:59.537Z,17.54
2022-07-27T20:31:02.361Z,17.61
2022-07-27T20:41:04.725Z,17.52
2022-07-27T20:51:06.868Z,17.40
2022-07-27T21:01:09.346Z,17.40
2022-07-27T21:11:11.396Z,17.09
2022-07-27T21:21:13.382Z,16.72
2022-07-27T21:31:15.428Z,16.39
2022-07-27T21:41:19.194Z,16.11
2022-07-27T21:51:21.692Z,16.19
2022-07-27T22:01:23.953Z,16.27
2022-07-27T22:11:26.088Z,16.08
2022-07-27T22:21:28.840Z,15.76
2022-07-27T22:31:30.788Z,15.44
2022-07-27T22:41:32.928Z,15.44
2022-07-27T22:51:48.707Z,15.58
2022-07-27T23:01:52.899Z,15.38
2022-07-27T23:11:55.835Z,15.08
2022-07-27T23:22:01.246Z,14.84
2022-07-27T23:32:05.226Z,14.77
2022-07-27T23:42:07.372Z,14.69
2022-07-27T23:52:09.491Z,14.39
